Terminal Aerodrome Forecast
Issued by NWS Charleston, WV

Current Version | Previous Version | Graphics & Text | Print | Product List | Glossary On
Versions: 1 2 3 4 5 6 7 8 9 10 11 12 13 14 15 16 17 18 19 20 21 22 23 24 25 26 27 28
000
FTUS41 KRLX 271100
TAFEKN
TAF
KEKN 271127Z 2712/2812 23004KT P6SM BKN030 BKN100
      TEMPO 2712/2714 SCT030
     FM271400 24008KT P6SM SCT040
     FM271900 25012G20KT 4SM +TSRA BKN035CB
     FM280000 26009KT P6SM -SHRA BKN040
     FM280600 28006KT P6SM BKN025=

USA.gov is the U.S. government's official web portal to all federal, state and local government web resources and services.